createdAt,value
2023-05-24T00:00:28.152Z,100051.29
2023-05-24T00:03:15.915Z,100055.36
2023-05-24T00:05:42.812Z,100057.68
2023-05-24T00:08:09.465Z,100063.52
2023-05-24T00:10:35.917Z,100066.27
2023-05-24T00:13:02.377Z,100063.44
2023-05-24T00:15:28.951Z,100071.89
2023-05-24T00:17:55.413Z,100072.03
2023-05-24T00:20:22.029Z,100075.67
2023-05-24T00:22:48.546Z,100074.29
2023-05-24T00:25:15.206Z,100079.83
2023-05-24T00:27:41.804Z,100081.24
2023-05-24T00:30:08.386Z,100078.61
2023-05-24T00:32:34.858Z,100081.39
2023-05-24T00:35:03.632Z,100084.67
2023-05-24T00:37:31.651Z,100091.05
2023-05-24T00:39:58.102Z,100089.39
2023-05-24T00:42:24.464Z,100091.27
2023-05-24T00:44:50.874Z,100092.57
2023-05-24T00:47:17.652Z,100097.73
2023-05-24T00:49:46.270Z,100095.41
2023-05-24T00:52:12.837Z,100095.63
2023-05-24T00:54:40.400Z,100098.96
2023-05-24T00:57:07.046Z,100102.69
2023-05-24T00:59:33.702Z,100103.25
2023-05-24T01:02:00.339Z,100108.46
2023-05-24T01:04:27.621Z,100107.35
2023-05-24T01:07:17.423Z,100109.35
2023-05-24T01:10:03.611Z,100115.17
2023-05-24T01:12:54.350Z,100119.39
2023-05-24T01:15:30.826Z,100122.38
2023-05-24T01:18:00.965Z,100129.23
2023-05-24T01:20:32.262Z,100131.98
2023-05-24T01:23:15.517Z,100140.12
2023-05-24T01:25:49.213Z,100142.69
2023-05-24T01:28:19.311Z,100155.04
2023-05-24T01:30:46.724Z,100158.71
2023-05-24T01:33:13.766Z,100159.25
2023-05-24T01:35:41.619Z,100162.41
2023-05-24T01:38:10.329Z,100167.73
2023-05-24T01:40:37.737Z,100170.42
2023-05-24T01:43:06.342Z,100175.95
2023-05-24T01:45:37.424Z,100174.86
2023-05-24T01:48:13.280Z,100177.64
2023-05-24T01:50:49.422Z,100178.80
2023-05-24T01:53:19.262Z,100181.20
2023-05-24T01:55:48.548Z,100183.66
2023-05-24T01:58:15.955Z,100191.20
2023-05-24T02:00:44.330Z,100191.23
2023-05-24T02:03:13.838Z,100194.73
2023-05-24T02:05:40.313Z,100205.34
2023-05-24T02:08:06.964Z,100205.42
2023-05-24T02:10:33.393Z,100209.92
2023-05-24T02:13:00.058Z,100211.96
2023-05-24T02:15:29.629Z,100212.83
2023-05-24T02:17:57.908Z,100217.67
2023-05-24T02:20:24.753Z,100217.70
2023-05-24T02:22:51.167Z,100216.91
2023-05-24T02:25:17.564Z,100217.27
2023-05-24T02:27:46.465Z,100217.98
2023-05-24T02:30:13.269Z,100217.63
2023-05-24T02:32:40.321Z,100218.95
2023-05-24T02:35:07.293Z,100220.30
2023-05-24T02:37:33.809Z,100220.67
2023-05-24T02:40:00.303Z,100222.50
2023-05-24T02:42:26.743Z,100219.90
2023-05-24T02:44:53.224Z,100220.50
2023-05-24T02:47:19.762Z,100220.03
2023-05-24T02:49:46.268Z,100220.64
2023-05-24T02:52:14.013Z,100221.13
2023-05-24T02:54:40.534Z,100221.19
2023-05-24T02:57:06.937Z,100223.36
2023-05-24T02:59:33.589Z,100222.33
2023-05-24T03:02:00.811Z,100224.80
2023-05-24T03:04:27.493Z,100229.58
2023-05-24T03:06:54.281Z,100230.56
2023-05-24T03:09:21.589Z,100231.54
2023-05-24T03:11:49.097Z,100236.41
2023-05-24T03:14:16.760Z,100242.43
2023-05-24T03:16:43.438Z,100242.39
2023-05-24T03:19:10.233Z,100244.19
2023-05-24T03:21:37.358Z,100243.92
2023-05-24T03:24:04.014Z,100246.00
2023-05-24T03:26:30.955Z,100246.17
2023-05-24T03:28:57.415Z,100252.14
2023-05-24T03:31:28.551Z,100253.69
2023-05-24T03:33:55.678Z,100255.34
2023-05-24T03:36:22.610Z,100259.42
2023-05-24T03:38:49.815Z,100258.34
2023-05-24T03:41:17.739Z,100261.90
2023-05-24T03:43:44.149Z,100261.48
2023-05-24T03:46:15.526Z,100261.71
2023-05-24T03:48:42.418Z,100262.88
2023-05-24T03:51:08.830Z,100265.58
2023-05-24T03:53:35.289Z,100267.70
2023-05-24T03:56:01.824Z,100266.77
2023-05-24T03:58:28.413Z,100272.73
2023-05-24T04:00:55.031Z,100273.00
2023-05-24T04:03:22.386Z,100272.64
2023-05-24T04:05:49.204Z,100271.64
2023-05-24T04:08:15.898Z,100274.89
2023-05-24T04:10:42.974Z,100272.18
2023-05-24T04:13:11.008Z,100274.02
2023-05-24T04:15:37.581Z,100272.70
2023-05-24T04:18:05.064Z,100272.01
2023-05-24T04:20:34.136Z,100281.40
2023-05-24T04:23:00.661Z,100284.85
2023-05-24T04:25:27.093Z,100289.20
2023-05-24T04:27:55.493Z,100288.84
2023-05-24T04:30:23.234Z,100296.52
2023-05-24T04:32:50.787Z,100301.06
2023-05-24T04:35:17.626Z,100306.26
2023-05-24T04:37:44.522Z,100308.61
2023-05-24T04:40:11.706Z,100309.71
2023-05-24T04:42:38.578Z,100309.06
2023-05-24T04:45:06.464Z,100309.29
2023-05-24T04:47:32.949Z,100317.76
2023-05-24T04:49:59.500Z,100318.77
2023-05-24T04:52:25.990Z,100323.92
2023-05-24T04:54:54.578Z,100331.03
2023-05-24T04:57:21.608Z,100330.60
2023-05-24T04:59:48.390Z,100334.91
2023-05-24T05:02:14.932Z,100340.04
2023-05-24T05:04:41.728Z,100339.02
2023-05-24T05:07:08.398Z,100340.80
2023-05-24T05:09:35.236Z,100345.34
2023-05-24T05:12:02.305Z,100346.77
2023-05-24T05:14:29.063Z,100344.38
2023-05-24T05:16:55.579Z,100347.69
2023-05-24T05:19:22.145Z,100351.00
2023-05-24T05:21:48.651Z,100357.08
2023-05-24T05:24:16.140Z,100358.84
2023-05-24T05:26:42.585Z,100360.83
2023-05-24T05:29:09.380Z,100361.92
2023-05-24T05:31:35.960Z,100367.94
2023-05-24T05:34:02.511Z,100364.58
2023-05-24T05:36:29.020Z,100367.72
2023-05-24T05:38:55.508Z,100370.26
2023-05-24T05:41:21.984Z,100367.59
2023-05-24T05:43:48.470Z,100368.56
2023-05-24T05:46:15.571Z,100370.42
2023-05-24T05:48:43.279Z,100369.98
2023-05-24T05:51:11.498Z,100372.10
2023-05-24T05:53:37.887Z,100370.98
2023-05-24T05:56:04.475Z,100375.86
2023-05-24T05:58:31.115Z,100371.63
2023-05-24T06:00:57.942Z,100373.90
2023-05-24T06:03:24.588Z,100373.44
2023-05-24T06:05:51.264Z,100374.40
2023-05-24T06:08:17.669Z,100379.55
2023-05-24T06:10:44.927Z,100382.30
2023-05-24T06:13:13.926Z,100374.45
2023-05-24T06:15:40.518Z,100383.70
2023-05-24T06:18:07.080Z,100386.98
2023-05-24T06:20:33.717Z,100389.50
2023-05-24T06:23:00.770Z,100390.40
2023-05-24T06:25:30.139Z,100393.88
2023-05-24T06:27:56.733Z,100397.40
2023-05-24T06:30:23.251Z,100400.36
2023-05-24T06:32:50.191Z,100397.38
2023-05-24T06:35:17.116Z,100397.30
2023-05-24T06:37:43.717Z,100397.34
2023-05-24T06:40:10.888Z,100396.40
2023-05-24T06:42:37.531Z,100402.70
2023-05-24T06:45:04.734Z,100409.20
2023-05-24T06:47:31.477Z,100412.79
2023-05-24T06:49:58.164Z,100419.45
2023-05-24T06:52:24.858Z,100415.48
2023-05-24T06:54:51.721Z,100415.64
2023-05-24T06:57:18.339Z,100421.38
2023-05-24T06:59:44.945Z,100428.70
2023-05-24T07:02:11.533Z,100431.10
2023-05-24T07:04:40.678Z,100437.70
2023-05-24T07:07:08.323Z,100436.42
2023-05-24T07:09:35.119Z,100438.02
2023-05-24T07:12:01.950Z,100436.75
2023-05-24T07:14:28.403Z,100442.36
2023-05-24T07:16:56.726Z,100445.94
2023-05-24T07:19:27.066Z,100449.51
2023-05-24T07:21:53.729Z,100452.39
2023-05-24T07:24:21.379Z,100459.42
2023-05-24T07:26:48.648Z,100460.23
2023-05-24T07:29:15.427Z,100463.91
2023-05-24T07:31:42.090Z,100466.79
2023-05-24T07:34:08.572Z,100466.98
2023-05-24T07:36:35.163Z,100480.56
2023-05-24T07:39:04.049Z,100479.86
2023-05-24T07:41:30.820Z,100484.42
2023-05-24T07:43:57.262Z,100479.76
2023-05-24T07:46:23.866Z,100480.54
2023-05-24T07:48:50.818Z,100483.08
2023-05-24T07:51:17.249Z,100485.71
2023-05-24T07:53:43.727Z,100484.45
2023-05-24T07:56:10.547Z,100485.50
2023-05-24T07:58:37.221Z,100484.08
2023-05-24T12:09:29.498Z,100578.61
2023-05-24T12:11:58.539Z,100579.82
2023-05-24T12:14:30.925Z,100579.65
2023-05-24T12:17:01.097Z,100585.10
2023-05-24T12:19:36.758Z,100579.41
2023-05-24T12:22:07.241Z,100579.38
2023-05-24T12:24:37.739Z,100580.20
2023-05-24T12:27:07.411Z,100576.02
2023-05-24T12:29:38.648Z,100575.56
2023-05-24T12:32:12.343Z,100577.17
2023-05-24T12:34:42.621Z,100575.21
2023-05-24T12:37:15.149Z,100576.45
2023-05-24T12:39:44.523Z,100579.04
2023-05-24T12:42:13.902Z,100579.52
2023-05-24T12:44:42.501Z,100584.52
2023-05-24T12:47:10.672Z,100578.11
2023-05-24T12:49:38.858Z,100580.34
2023-05-24T12:52:07.231Z,100583.02
2023-05-24T12:54:35.619Z,100584.08
2023-05-24T12:57:03.869Z,100582.54
2023-05-24T12:59:31.902Z,100585.96
2023-05-24T13:01:59.733Z,100584.20
2023-05-24T13:04:28.213Z,100583.58
2023-05-24T13:06:56.254Z,100585.79
2023-05-24T13:09:25.959Z,100585.75
2023-05-24T13:11:55.425Z,100584.85
2023-05-24T13:14:23.487Z,100581.48
2023-05-24T13:16:51.584Z,100578.33
2023-05-24T13:19:19.718Z,100581.02
2023-05-24T13:21:47.710Z,100574.20
2023-05-24T13:24:16.556Z,100568.05
2023-05-24T13:26:45.634Z,100562.86
2023-05-24T13:31:48.246Z,100571.95
2023-05-24T13:34:16.143Z,100573.85
2023-05-24T13:36:45.610Z,100574.23
2023-05-24T13:39:16.268Z,100572.84
2023-05-24T13:41:45.500Z,100567.04
2023-05-24T13:44:14.533Z,100567.55
2023-05-24T13:46:43.644Z,100567.46
2023-05-24T13:49:12.904Z,100562.91
2023-05-24T13:51:40.866Z,100567.89
2023-05-24T13:54:08.911Z,100569.42
2023-05-24T13:56:37.273Z,100570.78
2023-05-24T13:59:06.485Z,100568.95
2023-05-24T14:01:37.144Z,100565.44
2023-05-24T14:04:06.186Z,100568.31
2023-05-24T14:06:34.906Z,100569.51
2023-05-24T14:09:02.800Z,100570.66
2023-05-24T14:11:31.881Z,100571.95
2023-05-24T14:16:31.690Z,100569.81
2023-05-24T14:18:59.868Z,100566.55
2023-05-24T14:21:28.022Z,100571.04
2023-05-24T14:23:56.091Z,100569.66
2023-05-24T14:26:24.473Z,100570.62
2023-05-24T14:28:55.993Z,100567.55
2023-05-24T14:31:24.867Z,100575.05
2023-05-24T14:33:53.133Z,100569.36
2023-05-24T14:36:21.312Z,100571.11
2023-05-24T14:38:49.471Z,100565.25
2023-05-24T14:41:17.389Z,100567.15
2023-05-24T14:43:45.665Z,100565.70
2023-05-24T14:46:13.643Z,100569.96
2023-05-24T14:48:41.810Z,100563.72
2023-05-24T14:51:09.870Z,100565.13
2023-05-24T14:53:37.753Z,100561.16
2023-05-24T14:56:08.243Z,100560.23
2023-05-24T14:58:36.426Z,100561.85
2023-05-24T15:01:04.714Z,100564.53
2023-05-24T15:03:33.177Z,100565.45
2023-05-24T15:06:01.945Z,100573.17
2023-05-24T15:08:30.978Z,100575.36
2023-05-24T15:10:59.610Z,100570.92
2023-05-24T15:13:27.805Z,100571.27
2023-05-24T15:15:59.052Z,100577.45
2023-05-24T15:18:30.464Z,100577.00
2023-05-24T15:20:58.598Z,100571.52
2023-05-24T15:23:26.859Z,100568.95
2023-05-24T15:25:54.750Z,100569.95
2023-05-24T15:28:24.763Z,100570.01
2023-05-24T15:30:54.543Z,100561.08
2023-05-24T15:33:22.897Z,100567.61
2023-05-24T15:35:51.274Z,100573.40
2023-05-24T15:38:19.450Z,100562.02
2023-05-24T15:40:47.364Z,100560.44
2023-05-24T15:46:23.204Z,100554.55
2023-05-24T15:48:51.223Z,100557.88
2023-05-24T15:51:57.460Z,100556.95
2023-05-24T15:54:08.113Z,100555.63
2023-05-24T15:56:35.921Z,100562.67
2023-05-24T15:59:03.880Z,100559.10
2023-05-24T16:01:31.903Z,100560.95
2023-05-24T16:04:00.655Z,100561.09
2023-05-24T16:06:28.859Z,100565.27
2023-05-24T16:08:56.855Z,100565.87
2023-05-24T16:11:24.850Z,100561.92
2023-05-24T16:13:54.289Z,100569.27
2023-05-24T16:16:23.712Z,100574.45
2023-05-24T16:18:51.762Z,100577.19
2023-05-24T16:21:19.961Z,100576.13
2023-05-24T16:23:48.232Z,100574.86
2023-05-24T16:27:03.816Z,100573.93
2023-05-24T16:29:32.071Z,100574.30
2023-05-24T16:32:00.547Z,100575.12
2023-05-24T16:34:28.860Z,100581.13
2023-05-24T16:36:57.454Z,100583.96
2023-05-24T16:39:26.067Z,100586.01
2023-05-24T16:41:54.089Z,100584.34
2023-05-24T16:44:22.458Z,100582.93
2023-05-24T16:46:50.476Z,100585.14
2023-05-24T16:49:18.815Z,100587.91
2023-05-24T16:51:47.066Z,100592.94
2023-05-24T16:54:16.329Z,100599.98
2023-05-24T16:56:46.200Z,100606.02
2023-05-24T16:59:14.461Z,100604.02
2023-05-24T17:01:45.275Z,100603.86
2023-05-24T17:04:13.888Z,100603.56
2023-05-24T17:06:42.320Z,100601.73
2023-05-24T17:09:10.209Z,100602.08
2023-05-24T17:11:38.077Z,100605.16
2023-05-24T17:14:06.470Z,100608.88
2023-05-24T17:16:34.515Z,100612.45
2023-05-24T17:19:03.578Z,100616.21
2023-05-24T17:21:32.417Z,100619.05
2023-05-24T17:24:00.886Z,100617.91
2023-05-24T17:26:29.303Z,100621.44
2023-05-24T17:28:57.690Z,100620.09
2023-05-24T17:31:25.690Z,100622.14
2023-05-24T17:33:55.822Z,100623.46
2023-05-24T17:36:23.979Z,100628.73
2023-05-24T17:38:51.843Z,100635.60
2023-05-24T17:41:21.093Z,100638.09
2023-05-24T17:43:50.364Z,100636.09
2023-05-24T17:46:18.308Z,100641.64
2023-05-24T17:48:47.787Z,100642.48
2023-05-24T17:51:19.474Z,100637.81
2023-05-24T17:53:47.422Z,100642.13
2023-05-24T17:56:16.513Z,100641.11
2023-05-24T17:58:47.471Z,100641.07
2023-05-24T18:01:16.471Z,100642.67
2023-05-24T18:03:44.472Z,100649.77
2023-05-24T18:06:12.859Z,100649.84
2023-05-24T18:08:43.872Z,100650.83
2023-05-24T18:11:14.000Z,100654.66
2023-05-24T18:13:43.186Z,100656.09
2023-05-24T18:16:12.316Z,100660.42
2023-05-24T18:18:41.454Z,100659.73
2023-05-24T18:21:09.895Z,100662.30
2023-05-24T18:23:38.159Z,100670.78
2023-05-24T18:26:11.363Z,100673.75
2023-05-24T18:28:42.213Z,100675.91
2023-05-24T18:31:12.002Z,100682.30
2023-05-24T18:33:41.136Z,100678.08
2023-05-24T18:36:09.632Z,100683.27
2023-05-24T18:38:41.437Z,100688.77
2023-05-24T18:41:11.908Z,100689.91
2023-05-24T18:43:43.153Z,100696.90
2023-05-24T18:46:13.950Z,100696.68
2023-05-24T18:48:42.225Z,100702.67
2023-05-24T18:51:10.484Z,100705.75
2023-05-24T18:53:40.192Z,100711.31
2023-05-24T18:56:08.645Z,100712.27
2023-05-24T18:58:37.666Z,100711.73
2023-05-24T19:01:06.336Z,100713.20
2023-05-24T19:03:34.868Z,100716.17
2023-05-24T19:06:03.560Z,100715.86
2023-05-24T19:08:31.801Z,100717.06
2023-05-24T19:10:59.825Z,100720.27
2023-05-24T19:13:28.122Z,100721.31
2023-05-24T19:15:56.532Z,100725.33
2023-05-24T19:18:26.628Z,100731.48
2023-05-24T19:20:54.837Z,100733.29
2023-05-24T19:23:23.093Z,100736.98
2023-05-24T19:25:51.475Z,100737.50
2023-05-24T19:28:19.710Z,100738.75
2023-05-24T19:30:48.633Z,100732.38
2023-05-24T19:33:16.909Z,100728.31
2023-05-24T19:35:46.146Z,100730.36
2023-05-24T19:38:17.616Z,100736.84
2023-05-24T19:40:46.050Z,100739.08
2023-05-24T19:43:14.043Z,100735.16
2023-05-24T19:45:42.321Z,100737.24
2023-05-24T19:48:11.921Z,100738.29
2023-05-24T19:50:40.652Z,100742.48
2023-05-24T19:53:09.052Z,100735.60
2023-05-24T19:55:37.628Z,100733.48
2023-05-24T19:58:05.863Z,100731.02
2023-05-24T20:00:34.197Z,100730.48
2023-05-24T20:03:02.637Z,100729.66
2023-05-24T20:05:31.158Z,100727.64
2023-05-24T20:07:59.491Z,100726.97
2023-05-24T20:10:30.177Z,100732.95
2023-05-24T20:12:59.225Z,100735.17
2023-05-24T20:15:28.398Z,100733.23
2023-05-24T20:17:56.688Z,100730.73
2023-05-24T20:20:26.107Z,100735.73
2023-05-24T20:22:54.378Z,100742.23
2023-05-24T20:25:24.253Z,100747.64
2023-05-24T20:27:52.430Z,100751.13
2023-05-24T20:30:20.776Z,100751.86
2023-05-24T20:32:49.319Z,100749.55
2023-05-24T20:35:17.380Z,100749.77
2023-05-24T20:37:45.587Z,100749.55
2023-05-24T20:40:23.097Z,100750.15
2023-05-24T20:42:51.727Z,100752.72
2023-05-24T20:45:19.906Z,100757.48
2023-05-24T20:47:48.911Z,100760.31
2023-05-24T20:50:17.937Z,100762.88
2023-05-24T20:52:46.317Z,100762.05
2023-05-24T20:55:16.647Z,100764.82
2023-05-24T20:57:45.206Z,100766.05
2023-05-24T21:00:13.633Z,100768.95
2023-05-24T21:02:41.518Z,100770.09
2023-05-24T21:05:10.009Z,100771.91
2023-05-24T21:07:38.407Z,100776.16
2023-05-24T21:10:07.701Z,100776.39
2023-05-24T21:12:35.697Z,100782.96
2023-05-24T21:15:04.234Z,100782.50
2023-05-24T21:17:32.097Z,100785.98
2023-05-24T21:19:59.952Z,100788.27
2023-05-24T21:22:27.876Z,100787.98
2023-05-24T21:24:56.700Z,100787.80
2023-05-24T21:27:24.588Z,100787.77
2023-05-24T21:29:52.390Z,100792.09
2023-05-24T21:32:20.435Z,100796.70
2023-05-24T21:34:49.775Z,100803.51
2023-05-24T21:37:17.606Z,100807.86
2023-05-24T21:39:45.613Z,100810.87
2023-05-24T21:42:13.417Z,100807.33
2023-05-24T21:44:41.245Z,100809.51
2023-05-24T21:47:09.309Z,100812.11
2023-05-24T21:49:37.116Z,100816.09
2023-05-24T21:52:05.163Z,100818.42
2023-05-24T21:54:33.006Z,100820.71
2023-05-24T21:57:01.579Z,100822.42
2023-05-24T21:59:29.532Z,100821.08
2023-05-24T22:01:57.402Z,100824.51
2023-05-24T22:04:25.410Z,100827.20
2023-05-24T22:06:53.184Z,100831.49
2023-05-24T22:09:21.032Z,100831.61
2023-05-24T22:11:48.843Z,100830.55
2023-05-24T22:14:16.781Z,100836.98
2023-05-24T22:16:44.768Z,100833.54
2023-05-24T22:19:16.430Z,100830.95
2023-05-24T22:21:50.163Z,100834.74
2023-05-24T22:24:18.219Z,100837.42
2023-05-24T22:26:46.781Z,100835.75
2023-05-24T22:29:14.860Z,100831.06
2023-05-24T22:31:42.697Z,100826.55
2023-05-24T22:34:11.563Z,100832.20
2023-05-24T22:36:39.581Z,100828.48
2023-05-24T22:39:07.945Z,100822.27
2023-05-24T22:41:35.841Z,100823.45
2023-05-24T22:44:03.774Z,100825.20
2023-05-24T22:46:31.913Z,100822.67
2023-05-24T22:49:03.245Z,100823.66
2023-05-24T22:51:31.870Z,100821.94
2023-05-24T22:54:00.497Z,100823.95
2023-05-24T22:56:28.489Z,100823.86
2023-05-24T22:58:56.912Z,100822.75
2023-05-24T23:01:24.815Z,100817.17
2023-05-24T23:03:53.491Z,100814.83
2023-05-24T23:06:21.404Z,100813.86
2023-05-24T23:08:49.239Z,100814.50
2023-05-24T23:11:17.545Z,100813.54
2023-05-24T23:13:45.358Z,100809.35
2023-05-24T23:16:17.959Z,100807.95
2023-05-24T23:18:45.977Z,100804.42
2023-05-24T23:21:22.445Z,100802.66
2023-05-24T23:23:51.433Z,100802.80
2023-05-24T23:26:19.596Z,100804.03
2023-05-24T23:28:47.506Z,100807.27
2023-05-24T23:31:15.815Z,100813.30
2023-05-24T23:33:43.787Z,100818.45
2023-05-24T23:36:11.772Z,100819.30
2023-05-24T23:38:39.608Z,100828.00
2023-05-24T23:41:07.389Z,100830.05
2023-05-24T23:43:35.276Z,100835.42
2023-05-24T23:46:03.352Z,100842.61
2023-05-24T23:48:31.209Z,100844.24
2023-05-24T23:50:59.169Z,100843.83
2023-05-24T23:53:26.974Z,100843.66
2023-05-24T23:55:54.844Z,100843.62
2023-05-24T23:58:22.777Z,100844.06
